sensor_id;sensor_type;location;lat;lon;timestamp;pressure;altitude;pressure_sealevel;temperature;humidity
10145;BME280;5113;41.822;23.564;2023-07-30T00:02:03;-11354.38;;;15.17;100.00
10145;BME280;5113;41.822;23.564;2023-07-30T00:05:11;-11344.66;;;14.82;100.00
10145;BME280;5113;41.822;23.564;2023-07-30T00:08:18;-11345.66;;;14.86;100.00
10145;BME280;5113;41.822;23.564;2023-07-30T00:11:24;-11346.50;;;14.89;100.00
10145;BME280;5113;41.822;23.564;2023-07-30T00:14:31;-11373.00;;;15.84;100.00
10145;BME280;5113;41.822;23.564;2023-07-30T00:17:38;-11363.97;;;15.52;100.00
10145;BME280;5113;41.822;23.564;2023-07-30T00:20:46;-11360.16;;;15.38;100.00
10145;BME280;5113;41.822;23.564;2023-07-30T00:23:52;-11371.84;;;15.80;100.00
10145;BME280;5113;41.822;23.564;2023-07-30T00:26:58;-11367.34;;;15.64;100.00
10145;BME280;5113;41.822;23.564;2023-07-30T00:30:06;-11357.22;;;15.28;100.00
10145;BME280;5113;41.822;23.564;2023-07-30T00:33:12;-11347.06;;;14.91;100.00
10145;BME280;5113;41.822;23.564;2023-07-30T00:36:20;-11340.59;;;14.68;100.00
10145;BME280;5113;41.822;23.564;2023-07-30T00:39:26;-11347.06;;;14.91;100.00
10145;BME280;5113;41.822;23.564;2023-07-30T00:42:33;-11348.75;;;14.97;100.00
10145;BME280;5113;41.822;23.564;2023-07-30T00:45:41;-11369.59;;;15.72;100.00
10145;BME280;5113;41.822;23.564;2023-07-30T00:48:48;-11374.97;;;15.92;100.00
10145;BME280;5113;41.822;23.564;2023-07-30T00:51:57;-11367.63;;;15.65;100.00
10145;BME280;5113;41.822;23.564;2023-07-30T00:55:04;-11373.84;;;15.88;100.00
10145;BME280;5113;41.822;23.564;2023-07-30T00:58:13;-11365.81;;;15.59;100.00
10145;BME280;5113;41.822;23.564;2023-07-30T01:01:19;-11357.78;;;15.30;100.00
10145;BME280;5113;41.822;23.564;2023-07-30T01:04:26;-11359.03;;;15.34;100.00
10145;BME280;5113;41.822;23.564;2023-07-30T01:07:33;-11331.16;;;14.34;100.00
10145;BME280;5113;41.822;23.564;2023-07-30T01:10:40;-11333.41;;;14.42;100.00
10145;BME280;5113;41.822;23.564;2023-07-30T01:13:47;-11327.63;;;14.21;100.00
10145;BME280;5113;41.822;23.564;2023-07-30T01:16:54;-11324.66;;;14.10;100.00
10145;BME280;5113;41.822;23.564;2023-07-30T01:20:00;-11324.25;;;14.09;100.00
10145;BME280;5113;41.822;23.564;2023-07-30T01:23:09;-11325.09;;;14.12;100.00
10145;BME280;5113;41.822;23.564;2023-07-30T01:26:19;-11325.66;;;14.14;100.00
10145;BME280;5113;41.822;23.564;2023-07-30T01:29:32;-11323.53;;;14.06;100.00
10145;BME280;5113;41.822;23.564;2023-07-30T01:32:40;-11323.25;;;14.05;100.00
10145;BME280;5113;41.822;23.564;2023-07-30T01:35:47;-11320.72;;;13.96;100.00
10145;BME280;5113;41.822;23.564;2023-07-30T01:38:56;-11322.69;;;14.03;100.00
10145;BME280;5113;41.822;23.564;2023-07-30T01:42:03;-11332.56;;;14.39;100.00
10145;BME280;5113;41.822;23.564;2023-07-30T01:45:10;-11348.63;;;14.97;100.00
10145;BME280;5113;41.822;23.564;2023-07-30T01:48:16;-11344.09;;;14.80;100.00
10145;BME280;5113;41.822;23.564;2023-07-30T01:51:23;-11341.72;;;14.72;100.00
10145;BME280;5113;41.822;23.564;2023-07-30T01:54:31;-11333.69;;;14.43;100.00
10145;BME280;5113;41.822;23.564;2023-07-30T01:57:37;-11328.63;;;14.25;100.00
10145;BME280;5113;41.822;23.564;2023-07-30T02:00:45;-11327.78;;;14.21;100.00
10145;BME280;5113;41.822;23.564;2023-07-30T02:03:52;-11329.47;;;14.28;100.00
10145;BME280;5113;41.822;23.564;2023-07-30T02:06:58;-11328.19;;;14.23;100.00
10145;BME280;5113;41.822;23.564;2023-07-30T02:10:06;-11339.87;;;14.65;100.00
10145;BME280;5113;41.822;23.564;2023-07-30T02:13:13;-11325.09;;;14.12;100.00
10145;BME280;5113;41.822;23.564;2023-07-30T02:16:20;-11300.75;;;13.24;100.00
10145;BME280;5113;41.822;23.564;2023-07-30T02:19:26;-11308.06;;;13.50;100.00
10145;BME280;5113;41.822;23.564;2023-07-30T02:22:32;-11294.69;;;13.02;100.00
10145;BME280;5113;41.822;23.564;2023-07-30T02:25:40;-11295.81;;;13.06;100.00
10145;BME280;5113;41.822;23.564;2023-07-30T02:28:46;-11302.00;;;13.29;100.00
10145;BME280;5113;41.822;23.564;2023-07-30T02:31:53;-11305.38;;;13.41;100.00
10145;BME280;5113;41.822;23.564;2023-07-30T02:34:59;-11329.88;;;14.29;100.00
10145;BME280;5113;41.822;23.564;2023-07-30T02:38:06;-11325.22;;;14.12;100.00
10145;BME280;5113;41.822;23.564;2023-07-30T02:41:14;-11333.97;;;14.44;100.00
10145;BME280;5113;41.822;23.564;2023-07-30T02:44:20;-11331.72;;;14.36;100.00
10145;BME280;5113;41.822;23.564;2023-07-30T02:47:27;-11342.84;;;14.76;100.00
10145;BME280;5113;41.822;23.564;2023-07-30T02:50:33;-11340.72;;;14.68;100.00
10145;BME280;5113;41.822;23.564;2023-07-30T02:53:42;-11335.94;;;14.51;100.00
10145;BME280;5113;41.822;23.564;2023-07-30T02:56:50;-11311.56;;;13.63;100.00
10145;BME280;5113;41.822;23.564;2023-07-30T02:59:57;-11302.16;;;13.29;100.00
10145;BME280;5113;41.822;23.564;2023-07-30T03:03:04;-11303.69;;;13.35;100.00
10145;BME280;5113;41.822;23.564;2023-07-30T03:06:11;-11298.91;;;13.17;100.00
10145;BME280;5113;41.822;23.564;2023-07-30T03:09:17;-11293.69;;;12.99;100.00
10145;BME280;5113;41.822;23.564;2023-07-30T03:12:25;-11295.53;;;13.05;100.00
10145;BME280;5113;41.822;23.564;2023-07-30T03:15:32;-11299.47;;;13.19;100.00
10145;BME280;5113;41.822;23.564;2023-07-30T03:18:38;-11296.38;;;13.08;100.00
10145;BME280;5113;41.822;23.564;2023-07-30T03:21:45;-11310.44;;;13.59;100.00
10145;BME280;5113;41.822;23.564;2023-07-30T03:24:51;-11303.56;;;13.34;100.00
10145;BME280;5113;41.822;23.564;2023-07-30T03:27:59;-11294.69;;;13.02;100.00
10145;BME280;5113;41.822;23.564;2023-07-30T03:31:05;-11281.59;;;12.55;100.00
10145;BME280;5113;41.822;23.564;2023-07-30T03:34:12;-11287.91;;;12.78;100.00
10145;BME280;5113;41.822;23.564;2023-07-30T03:37:18;-11300.03;;;13.21;100.00
10145;BME280;5113;41.822;23.564;2023-07-30T03:40:24;-11299.34;;;13.19;100.00
10145;BME280;5113;41.822;23.564;2023-07-30T03:43:32;-11292.16;;;12.93;100.00
10145;BME280;5113;41.822;23.564;2023-07-30T03:46:38;-11320.31;;;13.95;100.00
10145;BME280;5113;41.822;23.564;2023-07-30T03:49:45;-11317.78;;;13.85;100.00
10145;BME280;5113;41.822;23.564;2023-07-30T03:52:51;-11316.66;;;13.81;100.00
10145;BME280;5113;41.822;23.564;2023-07-30T03:55:58;-11323.69;;;14.07;100.00
10145;BME280;5113;41.822;23.564;2023-07-30T03:59:05;-11322.13;;;14.01;100.00
10145;BME280;5113;41.822;23.564;2023-07-30T04:02:12;-11343.97;;;14.80;100.00
10145;BME280;5113;41.822;23.564;2023-07-30T04:05:20;-11349.19;;;14.99;100.00
10145;BME280;5113;41.822;23.564;2023-07-30T04:08:27;-11341.72;;;14.72;100.00
10145;BME280;5113;41.822;23.564;2023-07-30T04:11:34;-11340.59;;;14.68;100.00
10145;BME280;5113;41.822;23.564;2023-07-30T04:14:42;-11327.34;;;14.20;100.00
10145;BME280;5113;41.822;23.564;2023-07-30T04:17:49;-11338.06;;;14.59;100.00
10145;BME280;5113;41.822;23.564;2023-07-30T04:20:55;-11334.09;;;14.44;100.00
10145;BME280;5113;41.822;23.564;2023-07-30T04:24:02;-11321.72;;;14.00;100.00
10145;BME280;5113;41.822;23.564;2023-07-30T04:27:09;-11332.13;;;14.37;100.00
10145;BME280;5113;41.822;23.564;2023-07-30T04:30:17;-11349.31;;;14.99;100.00
10145;BME280;5113;41.822;23.564;2023-07-30T04:33:23;-11362.56;;;15.47;100.00
10145;BME280;5113;41.822;23.564;2023-07-30T04:36:31;-11359.19;;;15.35;100.00
10145;BME280;5113;41.822;23.564;2023-07-30T04:39:37;-11363.69;;;15.51;100.00
10145;BME280;5113;41.822;23.564;2023-07-30T04:42:44;-11371.44;;;15.79;100.00
10145;BME280;5113;41.822;23.564;2023-07-30T04:45:52;-11379.31;;;16.07;100.00
10145;BME280;5113;41.822;23.564;2023-07-30T04:48:58;-11378.91;;;16.06;100.00
10145;BME280;5113;41.822;23.564;2023-07-30T04:52:07;-11388.47;;;16.40;100.00
10145;BME280;5113;41.822;23.564;2023-07-30T04:55:13;-11394.41;;;16.62;100.00
10145;BME280;5113;41.822;23.564;2023-07-30T04:58:20;-11397.09;;;16.71;100.00
10145;BME280;5113;41.822;23.564;2023-07-30T05:01:28;-11409.06;;;17.14;100.00
10145;BME280;5113;41.822;23.564;2023-07-30T05:04:34;-11407.09;;;17.07;100.00
10145;BME280;5113;41.822;23.564;2023-07-30T05:07:41;-11429.94;;;17.90;100.00
10145;BME280;5113;41.822;23.564;2023-07-30T05:10:47;-11421.75;;;17.60;100.00
10145;BME280;5113;41.822;23.564;2023-07-30T05:13:54;-11428.25;;;17.84;100.00
10145;BME280;5113;41.822;23.564;2023-07-30T05:17:02;-11447.13;;;18.52;96.50
10145;BME280;5113;41.822;23.564;2023-07-30T05:20:09;-11453.63;;;18.75;91.32
10145;BME280;5113;41.822;23.564;2023-07-30T05:23:15;-11443.19;;;18.37;94.56
10145;BME280;5113;41.822;23.564;2023-07-30T05:26:22;-11464.19;;;19.13;89.33
10145;BME280;5113;41.822;23.564;2023-07-30T05:29:28;-11458.97;;;18.94;88.01
10145;BME280;5113;41.822;23.564;2023-07-30T05:32:36;-11464.19;;;19.13;87.42
10145;BME280;5113;41.822;23.564;2023-07-30T05:35:42;-11453.03;;;18.73;88.25
10145;BME280;5113;41.822;23.564;2023-07-30T05:38:50;-11465.44;;;19.18;85.55
10145;BME280;5113;41.822;23.564;2023-07-30T05:41:56;-11474.06;;;19.49;83.41
10145;BME280;5113;41.822;23.564;2023-07-30T05:45:04;-11479.00;;;19.66;79.44
10145;BME280;5113;41.822;23.564;2023-07-30T05:48:11;-11497.03;;;20.31;78.98
10145;BME280;5113;41.822;23.564;2023-07-30T05:51:18;-11493.94;;;20.20;80.56
10145;BME280;5113;41.822;23.564;2023-07-30T05:54:24;-11505.94;;;20.63;78.71
10145;BME280;5113;41.822;23.564;2023-07-30T05:57:31;-11523.28;;;21.26;73.33
10145;BME280;5113;41.822;23.564;2023-07-30T06:00:38;-11526.13;;;21.36;70.12
10145;BME280;5113;41.822;23.564;2023-07-30T06:03:45;-11525.25;;;21.33;69.75
10145;BME280;5113;41.822;23.564;2023-07-30T06:06:52;-11544.44;;;22.02;65.90
10145;BME280;5113;41.822;23.564;2023-07-30T06:09:59;-11524.41;;;21.30;65.27
10145;BME280;5113;41.822;23.564;2023-07-30T06:13:06;-11534.16;;;21.65;64.88
10145;BME280;5113;41.822;23.564;2023-07-30T06:16:12;-11547.56;;;22.13;62.30
10145;BME280;5113;41.822;23.564;2023-07-30T06:19:20;-11526.81;;;21.38;63.19
10145;BME280;5113;41.822;23.564;2023-07-30T06:22:26;-11539.38;;;21.84;62.75
10145;BME280;5113;41.822;23.564;2023-07-30T06:25:33;-11552.34;;;22.30;60.95
10145;BME280;5113;41.822;23.564;2023-07-30T06:28:39;-11564.63;;;22.74;59.72
10145;BME280;5113;41.822;23.564;2023-07-30T06:31:46;-11566.19;;;22.80;59.21
10145;BME280;5113;41.822;23.564;2023-07-30T06:34:54;-11568.72;;;22.89;58.16
10145;BME280;5113;41.822;23.564;2023-07-30T06:38:00;-11570.13;;;22.94;57.52
10145;BME280;5113;41.822;23.564;2023-07-30T06:41:06;-11580.44;;;23.31;56.48
10145;BME280;5113;41.822;23.564;2023-07-30T06:44:13;-11572.69;;;23.03;58.44
10145;BME280;5113;41.822;23.564;2023-07-30T06:47:19;-11589.63;;;23.64;57.95
10145;BME280;5113;41.822;23.564;2023-07-30T06:50:27;-11601.19;;;24.06;56.40
10145;BME280;5113;41.822;23.564;2023-07-30T06:53:34;-11598.38;;;23.96;57.40
10145;BME280;5113;41.822;23.564;2023-07-30T06:56:40;-11609.38;;;24.35;55.66
10145;BME280;5113;41.822;23.564;2023-07-30T06:59:47;-11608.25;;;24.31;55.19
10145;BME280;5113;41.822;23.564;2023-07-30T07:02:53;-11590.59;;;23.68;54.93
10145;BME280;5113;41.822;23.564;2023-07-30T07:06:02;-11604.00;;;24.16;53.89
10145;BME280;5113;41.822;23.564;2023-07-30T07:09:09;-11620.66;;;24.76;53.32
10145;BME280;5113;41.822;23.564;2023-07-30T07:12:15;-11633.09;;;25.21;51.53
10145;BME280;5113;41.822;23.564;2023-07-30T07:15:22;-11644.94;;;25.63;50.56
10145;BME280;5113;41.822;23.564;2023-07-30T07:18:29;-11637.91;;;25.38;51.59
10145;BME280;5113;41.822;23.564;2023-07-30T07:21:37;-11635.34;;;25.29;50.47
10145;BME280;5113;41.822;23.564;2023-07-30T07:24:44;-11647.22;;;25.72;51.65
10145;BME280;5113;41.822;23.564;2023-07-30T07:27:50;-11655.53;;;26.02;50.44
10145;BME280;5113;41.822;23.564;2023-07-30T07:30:57;-11670.38;;;26.55;50.56
10145;BME280;5113;41.822;23.564;2023-07-30T07:34:04;-11669.25;;;26.51;49.63
10145;BME280;5113;41.822;23.564;2023-07-30T07:37:12;-11655.13;;;26.00;49.71
10145;BME280;5113;41.822;23.564;2023-07-30T07:40:20;-11679.97;;;26.89;48.95
10145;BME280;5113;41.822;23.564;2023-07-30T07:43:27;-11705.81;;;27.82;48.47
10145;BME280;5113;41.822;23.564;2023-07-30T07:46:33;-11690.72;;;27.28;47.75
10145;BME280;5113;41.822;23.564;2023-07-30T07:49:40;-11723.91;;;28.47;45.50
10145;BME280;5113;41.822;23.564;2023-07-30T07:52:48;-11732.53;;;28.78;45.02
10145;BME280;5113;41.822;23.564;2023-07-30T07:55:54;-11714.16;;;28.12;45.05
10145;BME280;5113;41.822;23.564;2023-07-30T07:59:01;-11692.84;;;27.36;46.27
10145;BME280;5113;41.822;23.564;2023-07-30T08:02:07;-11731.13;;;28.73;44.83
10145;BME280;5113;41.822;23.564;2023-07-30T08:05:14;-11751.47;;;29.46;43.61
10145;BME280;5113;41.822;23.564;2023-07-30T08:08:24;-11726.59;;;28.57;43.59
10145;BME280;5113;41.822;23.564;2023-07-30T08:11:30;-11711.19;;;28.02;44.14
10145;BME280;5113;41.822;23.564;2023-07-30T08:14:37;-11749.75;;;29.40;42.69
10145;BME280;5113;41.822;23.564;2023-07-30T08:17:43;-11729.84;;;28.69;43.51
10145;BME280;5113;41.822;23.564;2023-07-30T08:20:50;-11741.84;;;29.12;42.72
10145;BME280;5113;41.822;23.564;2023-07-30T08:23:58;-11734.22;;;28.84;42.03
10145;BME280;5113;41.822;23.564;2023-07-30T08:27:04;-11786.34;;;30.72;40.98
10145;BME280;5113;41.822;23.564;2023-07-30T08:30:11;-11790.03;;;30.85;37.94
10145;BME280;5113;41.822;23.564;2023-07-30T08:33:18;-11780.00;;;30.49;38.54
10145;BME280;5113;41.822;23.564;2023-07-30T08:36:24;-11778.59;;;30.44;38.15
10145;BME280;5113;41.822;23.564;2023-07-30T08:39:32;-11785.66;;;30.69;38.59
10145;BME280;5113;41.822;23.564;2023-07-30T08:42:39;-11821.81;;;31.99;38.64
10145;BME280;5113;41.822;23.564;2023-07-30T08:45:46;-11798.50;;;31.15;36.97
10145;BME280;5113;41.822;23.564;2023-07-30T08:48:52;-11830.03;;;32.29;36.30
10145;BME280;5113;41.822;23.564;2023-07-30T08:52:02;-11814.47;;;31.73;36.59
10145;BME280;5113;41.822;23.564;2023-07-30T08:55:11;-11802.59;;;31.30;35.37
10145;BME280;5113;41.822;23.564;2023-07-30T08:58:18;-11770.94;;;30.16;36.67
10145;BME280;5113;41.822;23.564;2023-07-30T09:01:29;-11796.66;;;31.09;34.39
10145;BME280;5113;41.822;23.564;2023-07-30T09:04:37;-11786.22;;;30.71;35.12
10145;BME280;5113;41.822;23.564;2023-07-30T09:07:44;-11807.13;;;31.46;34.70
10145;BME280;5113;41.822;23.564;2023-07-30T09:10:52;-11813.78;;;31.70;34.22
10145;BME280;5113;41.822;23.564;2023-07-30T09:14:01;-11799.66;;;31.19;33.31
10145;BME280;5113;41.822;23.564;2023-07-30T09:17:07;-11851.22;;;33.05;33.92
10145;BME280;5113;41.822;23.564;2023-07-30T09:20:17;-11833.41;;;32.41;32.41
10145;BME280;5113;41.822;23.564;2023-07-30T09:23:23;-11794.97;;;31.03;34.70
10145;BME280;5113;41.822;23.564;2023-07-30T09:26:39;-11816.75;;;31.81;34.39
10145;BME280;5113;41.822;23.564;2023-07-30T09:29:50;-11800.19;;;31.22;34.66
10145;BME280;5113;41.822;23.564;2023-07-30T09:32:57;-11818.44;;;31.87;33.67
10145;BME280;5113;41.822;23.564;2023-07-30T09:36:04;-11842.16;;;32.72;33.27
10145;BME280;5113;41.822;23.564;2023-07-30T09:39:16;-11800.47;;;31.23;34.02
10145;BME280;5113;41.822;23.564;2023-07-30T09:42:26;-11825.63;;;32.13;32.81
10145;BME280;5113;41.822;23.564;2023-07-30T09:45:34;-11804.31;;;31.36;33.21
10145;BME280;5113;41.822;23.564;2023-07-30T09:48:41;-11841.88;;;32.71;32.92
10145;BME280;5113;41.822;23.564;2023-07-30T09:51:48;-11849.38;;;32.98;30.60
10145;BME280;5113;41.822;23.564;2023-07-30T09:54:57;-11802.88;;;31.31;32.22
10145;BME280;5113;41.822;23.564;2023-07-30T09:58:05;-11801.75;;;31.27;32.18
10145;BME280;5113;41.822;23.564;2023-07-30T10:01:17;-11844.44;;;32.80;32.35
10145;BME280;5113;41.822;23.564;2023-07-30T10:04:24;-11846.13;;;32.87;30.60
10145;BME280;5113;41.822;23.564;2023-07-30T10:07:34;-11845.28;;;32.84;31.03
10145;BME280;5113;41.822;23.564;2023-07-30T10:10:40;-11852.91;;;33.11;31.62
10145;BME280;5113;41.822;23.564;2023-07-30T10:13:49;-11798.66;;;31.16;33.57
10145;BME280;5113;41.822;23.564;2023-07-30T10:17:00;-11837.94;;;32.57;32.43
10145;BME280;5113;41.822;23.564;2023-07-30T10:20:22;-11864.66;;;33.53;30.45
10145;BME280;5113;41.822;23.564;2023-07-30T10:23:29;-11869.72;;;33.71;31.11
10145;BME280;5113;41.822;23.564;2023-07-30T10:26:39;-11825.91;;;32.14;31.83
10145;BME280;5113;41.822;23.564;2023-07-30T10:29:48;-11797.22;;;31.11;33.24
10145;BME280;5113;41.822;23.564;2023-07-30T10:33:01;-11807.97;;;31.49;33.23
10145;BME280;5113;41.822;23.564;2023-07-30T10:36:10;-11810.66;;;31.59;34.27
10145;BME280;5113;41.822;23.564;2023-07-30T10:39:17;-11812.78;;;31.67;34.37
10145;BME280;5113;41.822;23.564;2023-07-30T10:42:33;-11811.66;;;31.63;34.30
10145;BME280;5113;41.822;23.564;2023-07-30T10:45:49;-11845.28;;;32.84;33.84
10145;BME280;5113;41.822;23.564;2023-07-30T10:48:55;-11858.56;;;33.31;33.91
10145;BME280;5113;41.822;23.564;2023-07-30T10:52:03;-11834.81;;;32.46;33.30
10145;BME280;5113;41.822;23.564;2023-07-30T10:55:09;-11854.88;;;33.18;35.19
10145;BME280;5113;41.822;23.564;2023-07-30T10:58:16;-11818.28;;;31.87;35.19
10145;BME280;5113;41.822;23.564;2023-07-30T11:01:25;-11808.13;;;31.50;35.26
10145;BME280;5113;41.822;23.564;2023-07-30T11:04:34;-11815.75;;;31.77;35.87
10145;BME280;5113;41.822;23.564;2023-07-30T11:07:49;-11808.25;;;31.50;37.76
10145;BME280;5113;41.822;23.564;2023-07-30T11:10:55;-11811.66;;;31.63;35.72
10145;BME280;5113;41.822;23.564;2023-07-30T11:14:02;-11834.25;;;32.44;34.02
10145;BME280;5113;41.822;23.564;2023-07-30T11:17:10;-11850.09;;;33.01;34.17
10145;BME280;5113;41.822;23.564;2023-07-30T11:20:23;-11881.19;;;34.12;32.97
10145;BME280;5113;41.822;23.564;2023-07-30T11:23:33;-11859.41;;;33.34;33.96
10145;BME280;5113;41.822;23.564;2023-07-30T11:26:39;-11826.19;;;32.15;32.83
10145;BME280;5113;41.822;23.564;2023-07-30T11:29:54;-11871.72;;;33.78;32.50
10145;BME280;5113;41.822;23.564;2023-07-30T11:33:02;-11865.22;;;33.55;32.64
10145;BME280;5113;41.822;23.564;2023-07-30T11:36:11;-11841.19;;;32.69;31.92
10145;BME280;5113;41.822;23.564;2023-07-30T11:39:18;-11816.44;;;31.80;32.88
10145;BME280;5113;41.822;23.564;2023-07-30T11:42:24;-11852.78;;;33.10;31.08
10145;BME280;5113;41.822;23.564;2023-07-30T11:45:35;-11832.84;;;32.39;32.20
10145;BME280;5113;41.822;23.564;2023-07-30T11:48:44;-11889.09;;;34.41;31.05
10145;BME280;5113;41.822;23.564;2023-07-30T11:51:51;-11842.75;;;32.74;32.08
10145;BME280;5113;41.822;23.564;2023-07-30T11:55:09;-11860.41;;;33.38;32.47
10145;BME280;5113;41.822;23.564;2023-07-30T11:58:15;-11864.22;;;33.52;31.63
10145;BME280;5113;41.822;23.564;2023-07-30T12:01:23;-11874.25;;;33.88;28.41
10145;BME280;5113;41.822;23.564;2023-07-30T12:04:43;-11894.75;;;34.61;27.45
10145;BME280;5113;41.822;23.564;2023-07-30T12:07:54;-11843.44;;;32.77;28.39
10145;BME280;5113;41.822;23.564;2023-07-30T12:11:03;-11896.16;;;34.66;28.58
10145;BME280;5113;41.822;23.564;2023-07-30T12:14:09;-11859.41;;;33.34;29.70
10145;BME280;5113;41.822;23.564;2023-07-30T12:17:16;-11866.75;;;33.61;29.11
10145;BME280;5113;41.822;23.564;2023-07-30T12:20:27;-11862.53;;;33.45;28.57
10145;BME280;5113;41.822;23.564;2023-07-30T12:23:33;-11930.38;;;35.89;28.22
10145;BME280;5113;41.822;23.564;2023-07-30T12:26:40;-11917.09;;;35.41;28.78
10145;BME280;5113;41.822;23.564;2023-07-30T12:29:47;-11896.31;;;34.67;28.19
10145;BME280;5113;41.822;23.564;2023-07-30T12:32:53;-11869.44;;;33.70;30.53
10145;BME280;5113;41.822;23.564;2023-07-30T12:36:01;-11874.13;;;33.87;27.15
10145;BME280;5113;41.822;23.564;2023-07-30T12:39:08;-11892.91;;;34.55;28.50
10145;BME280;5113;41.822;23.564;2023-07-30T12:42:15;-11890.50;;;34.46;28.16
10145;BME280;5113;41.822;23.564;2023-07-30T12:45:21;-11853.75;;;33.14;28.82
10145;BME280;5113;41.822;23.564;2023-07-30T12:48:28;-11895.03;;;34.62;27.91
10145;BME280;5113;41.822;23.564;2023-07-30T12:51:37;-11854.03;;;33.15;28.81
10145;BME280;5113;41.822;23.564;2023-07-30T12:54:43;-11882.72;;;34.18;28.07
10145;BME280;5113;41.822;23.564;2023-07-30T12:57:50;-11898.84;;;34.76;27.56
10145;BME280;5113;41.822;23.564;2023-07-30T13:00:56;-11896.88;;;34.69;28.92
10145;BME280;5113;41.822;23.564;2023-07-30T13:04:03;-11900.69;;;34.83;30.85
10145;BME280;5113;41.822;23.564;2023-07-30T13:07:12;-11908.03;;;35.09;28.52
10145;BME280;5113;41.822;23.564;2023-07-30T13:10:18;-11896.72;;;34.68;28.32
10145;BME280;5113;41.822;23.564;2023-07-30T13:13:25;-11873.41;;;33.85;29.91
10145;BME280;5113;41.822;23.564;2023-07-30T13:16:32;-11879.78;;;34.07;29.14
10145;BME280;5113;41.822;23.564;2023-07-30T13:19:38;-11900.41;;;34.82;28.11
10145;BME280;5113;41.822;23.564;2023-07-30T13:22:46;-11944.22;;;36.39;28.46
10145;BME280;5113;41.822;23.564;2023-07-30T13:25:53;-11910.59;;;35.18;28.85
10145;BME280;5113;41.822;23.564;2023-07-30T13:28:59;-11899.84;;;34.80;28.85
10145;BME280;5113;41.822;23.564;2023-07-30T13:32:06;-11885.97;;;34.30;29.35
10145;BME280;5113;41.822;23.564;2023-07-30T13:35:14;-11897.28;;;34.70;28.98
10145;BME280;5113;41.822;23.564;2023-07-30T13:38:22;-11904.38;;;34.96;28.21
10145;BME280;5113;41.822;23.564;2023-07-30T13:41:31;-11923.72;;;35.65;27.15
10145;BME280;5113;41.822;23.564;2023-07-30T13:44:37;-11906.63;;;35.04;28.92
10145;BME280;5113;41.822;23.564;2023-07-30T13:47:44;-11890.78;;;34.47;29.37
10145;BME280;5113;41.822;23.564;2023-07-30T13:50:51;-11891.06;;;34.48;29.92
10145;BME280;5113;41.822;23.564;2023-07-30T13:53:59;-11898.13;;;34.73;30.61
10145;BME280;5113;41.822;23.564;2023-07-30T13:57:06;-11861.53;;;33.42;31.41
10145;BME280;5113;41.822;23.564;2023-07-30T14:00:13;-11872.84;;;33.83;32.19
10145;BME280;5113;41.822;23.564;2023-07-30T14:03:20;-11897.56;;;34.71;30.12
10145;BME280;5113;41.822;23.564;2023-07-30T14:06:26;-11895.31;;;34.63;30.34
10145;BME280;5113;41.822;23.564;2023-07-30T14:09:35;-11851.22;;;33.05;32.32
10145;BME280;5113;41.822;23.564;2023-07-30T14:12:42;-11846.41;;;32.88;32.71
10145;BME280;5113;41.822;23.564;2023-07-30T14:15:48;-11873.56;;;33.85;30.75
10145;BME280;5113;41.822;23.564;2023-07-30T14:18:55;-11851.34;;;33.05;31.45
10145;BME280;5113;41.822;23.564;2023-07-30T14:22:01;-11875.25;;;33.91;30.92
10145;BME280;5113;41.822;23.564;2023-07-30T14:25:09;-11876.38;;;33.95;30.75
10145;BME280;5113;41.822;23.564;2023-07-30T14:28:16;-11897.44;;;34.71;29.09
10145;BME280;5113;41.822;23.564;2023-07-30T14:31:22;-11887.41;;;34.35;29.60
10145;BME280;5113;41.822;23.564;2023-07-30T14:34:29;-11923.03;;;35.63;29.11
10145;BME280;5113;41.822;23.564;2023-07-30T14:37:35;-11929.25;;;35.85;29.07
10145;BME280;5113;41.822;23.564;2023-07-30T14:40:43;-11890.50;;;34.46;30.79
10145;BME280;5113;41.822;23.564;2023-07-30T14:43:50;-11893.06;;;34.55;31.17
10145;BME280;5113;41.822;23.564;2023-07-30T14:46:57;-11904.66;;;34.97;30.56
10145;BME280;5113;41.822;23.564;2023-07-30T14:50:06;-11891.22;;;34.49;30.89
10145;BME280;5113;41.822;23.564;2023-07-30T14:53:13;-11893.34;;;34.56;31.39
10145;BME280;5113;41.822;23.564;2023-07-30T14:56:21;-11879.63;;;34.07;31.99
10145;BME280;5113;41.822;23.564;2023-07-30T14:59:27;-11890.22;;;34.45;30.93
10145;BME280;5113;41.822;23.564;2023-07-30T15:02:33;-11917.38;;;35.42;30.13
10145;BME280;5113;41.822;23.564;2023-07-30T15:05:40;-11941.81;;;36.30;29.62
10145;BME280;5113;41.822;23.564;2023-07-30T15:08:46;-11965.84;;;37.17;28.51
10145;BME280;5113;41.822;23.564;2023-07-30T15:11:54;-11962.31;;;37.04;28.02
10145;BME280;5113;41.822;23.564;2023-07-30T15:15:01;-11953.84;;;36.74;28.20
10145;BME280;5113;41.822;23.564;2023-07-30T15:18:07;-11953.13;;;36.71;28.02
10145;BME280;5113;41.822;23.564;2023-07-30T15:21:14;-11930.38;;;35.89;28.97
10145;BME280;5113;41.822;23.564;2023-07-30T15:24:21;-11896.44;;;34.67;30.65
10145;BME280;5113;41.822;23.564;2023-07-30T15:27:28;-11946.63;;;36.48;29.04
10145;BME280;5113;41.822;23.564;2023-07-30T15:30:36;-11906.47;;;35.03;31.50
10145;BME280;5113;41.822;23.564;2023-07-30T15:33:43;-11842.47;;;32.73;33.88
10145;BME280;5113;41.822;23.564;2023-07-30T15:36:50;-11784.94;;;30.67;36.76
10145;BME280;5113;41.822;23.564;2023-07-30T15:39:56;-11788.91;;;30.81;37.20
10145;BME280;5113;41.822;23.564;2023-07-30T15:43:04;-11788.19;;;30.78;37.08
10145;BME280;5113;41.822;23.564;2023-07-30T15:46:11;-11796.94;;;31.10;36.77
10145;BME280;5113;41.822;23.564;2023-07-30T15:49:17;-11781.69;;;30.55;38.33
10145;BME280;5113;41.822;23.564;2023-07-30T15:52:23;-11783.66;;;30.62;37.23
10145;BME280;5113;41.822;23.564;2023-07-30T15:55:32;-11780.28;;;30.50;37.13
10145;BME280;5113;41.822;23.564;2023-07-30T15:58:40;-11782.97;;;30.60;37.62
10145;BME280;5113;41.822;23.564;2023-07-30T16:01:46;-11775.19;;;30.32;38.44
10145;BME280;5113;41.822;23.564;2023-07-30T16:04:52;-11777.44;;;30.40;38.21
10145;BME280;5113;41.822;23.564;2023-07-30T16:07:59;-11783.66;;;30.62;37.15
10145;BME280;5113;41.822;23.564;2023-07-30T16:11:07;-11790.03;;;30.85;36.90
10145;BME280;5113;41.822;23.564;2023-07-30T16:14:15;-11786.06;;;30.71;36.42
10145;BME280;5113;41.822;23.564;2023-07-30T16:17:23;-11772.94;;;30.23;37.68